sensor_id;sensor_type;location;lat;lon;timestamp;temperature;humidity
11961;DHT22;6040;49.358;11.140;2023-05-02T00:37:39;6.70;99.90
11961;DHT22;6040;49.358;11.140;2023-05-02T00:40:07;7.50;99.90
11961;DHT22;6040;49.358;11.140;2023-05-02T02:34:24;5.60;99.90
11961;DHT22;6040;49.358;11.140;2023-05-02T02:36:56;5.60;99.90
11961;DHT22;6040;49.358;11.140;2023-05-02T02:39:36;5.60;99.90
11961;DHT22;6040;49.358;11.140;2023-05-02T02:42:10;5.50;99.90
11961;DHT22;6040;49.358;11.140;2023-05-02T02:44:46;6.40;99.90
11961;DHT22;6040;49.358;11.140;2023-05-02T02:47:18;5.30;99.90
11961;DHT22;6040;49.358;11.140;2023-05-02T02:49:48;6.60;99.90
11961;DHT22;6040;49.358;11.140;2023-05-02T02:52:23;5.40;99.90
11961;DHT22;6040;49.358;11.140;2023-05-02T02:54:57;5.30;99.90
11961;DHT22;6040;49.358;11.140;2023-05-02T02:57:29;5.30;99.90
11961;DHT22;6040;49.358;11.140;2023-05-02T03:00:01;5.20;99.90
11961;DHT22;6040;49.358;11.140;2023-05-02T03:02:31;6.60;99.90
11961;DHT22;6040;49.358;11.140;2023-05-02T03:05:00;5.00;99.90
11961;DHT22;6040;49.358;11.140;2023-05-02T03:07:28;5.80;99.90
11961;DHT22;6040;49.358;11.140;2023-05-02T03:09:57;5.20;99.90
11961;DHT22;6040;49.358;11.140;2023-05-02T03:12:24;6.10;99.90
11961;DHT22;6040;49.358;11.140;2023-05-02T03:14:50;5.10;99.90
11961;DHT22;6040;49.358;11.140;2023-05-02T03:17:17;6.40;99.90
11961;DHT22;6040;49.358;11.140;2023-05-02T03:19:44;6.50;99.90
11961;DHT22;6040;49.358;11.140;2023-05-02T03:22:11;4.90;99.90
11961;DHT22;6040;49.358;11.140;2023-05-02T03:24:38;5.10;99.90
11961;DHT22;6040;49.358;11.140;2023-05-02T03:27:07;6.20;99.90
11961;DHT22;6040;49.358;11.140;2023-05-02T03:29:34;5.00;99.90
11961;DHT22;6040;49.358;11.140;2023-05-02T03:32:00;5.00;99.90
11961;DHT22;6040;49.358;11.140;2023-05-02T03:34:27;5.10;99.90
11961;DHT22;6040;49.358;11.140;2023-05-02T03:36:54;5.00;99.90
11961;DHT22;6040;49.358;11.140;2023-05-02T03:39:21;5.00;99.90
11961;DHT22;6040;49.358;11.140;2023-05-02T03:41:48;5.00;99.90
11961;DHT22;6040;49.358;11.140;2023-05-02T03:44:16;4.80;99.90
11961;DHT22;6040;49.358;11.140;2023-05-02T03:46:43;4.80;99.90
11961;DHT22;6040;49.358;11.140;2023-05-02T03:49:09;4.70;99.90
11961;DHT22;6040;49.358;11.140;2023-05-02T03:51:36;6.10;99.90
11961;DHT22;6040;49.358;11.140;2023-05-02T03:54:03;4.80;99.90
11961;DHT22;6040;49.358;11.140;2023-05-02T03:56:30;4.80;99.90
11961;DHT22;6040;49.358;11.140;2023-05-02T03:58:57;4.80;99.90
11961;DHT22;6040;49.358;11.140;2023-05-02T04:01:25;4.70;99.90
11961;DHT22;6040;49.358;11.140;2023-05-02T04:03:52;4.90;99.90
11961;DHT22;6040;49.358;11.140;2023-05-02T04:06:18;5.40;99.90
11961;DHT22;6040;49.358;11.140;2023-05-02T04:08:45;4.90;99.90
11961;DHT22;6040;49.358;11.140;2023-05-02T04:11:12;5.20;99.90
11961;DHT22;6040;49.358;11.140;2023-05-02T04:13:39;4.90;99.90
11961;DHT22;6040;49.358;11.140;2023-05-02T04:16:07;5.30;99.90
11961;DHT22;6040;49.358;11.140;2023-05-02T04:18:35;5.00;99.90
11961;DHT22;6040;49.358;11.140;2023-05-02T04:21:02;5.20;99.90
11961;DHT22;6040;49.358;11.140;2023-05-02T04:23:29;5.10;99.90
11961;DHT22;6040;49.358;11.140;2023-05-02T04:25:56;5.30;99.90
11961;DHT22;6040;49.358;11.140;2023-05-02T04:28:23;6.40;99.90
11961;DHT22;6040;49.358;11.140;2023-05-02T04:30:50;5.10;99.90
11961;DHT22;6040;49.358;11.140;2023-05-02T04:33:17;5.20;99.90
11961;DHT22;6040;49.358;11.140;2023-05-02T04:35:45;5.30;99.90
11961;DHT22;6040;49.358;11.140;2023-05-02T04:38:12;5.30;99.90
11961;DHT22;6040;49.358;11.140;2023-05-02T04:40:40;5.30;99.90
11961;DHT22;6040;49.358;11.140;2023-05-02T04:43:06;5.30;99.90
11961;DHT22;6040;49.358;11.140;2023-05-02T04:45:34;5.50;99.90
11961;DHT22;6040;49.358;11.140;2023-05-02T04:48:01;5.50;99.90
11961;DHT22;6040;49.358;11.140;2023-05-02T04:50:28;6.00;99.90
11961;DHT22;6040;49.358;11.140;2023-05-02T04:52:58;5.70;99.90
11961;DHT22;6040;49.358;11.140;2023-05-02T04:55:24;5.90;99.90
11961;DHT22;6040;49.358;11.140;2023-05-02T04:57:51;6.10;99.90
11961;DHT22;6040;49.358;11.140;2023-05-02T05:00:18;6.10;99.90
11961;DHT22;6040;49.358;11.140;2023-05-02T05:02:46;6.10;99.90
11961;DHT22;6040;49.358;11.140;2023-05-02T05:05:13;6.30;99.90
11961;DHT22;6040;49.358;11.140;2023-05-02T05:07:39;6.60;99.90
11961;DHT22;6040;49.358;11.140;2023-05-02T05:10:09;6.50;99.90
11961;DHT22;6040;49.358;11.140;2023-05-02T05:12:36;6.60;99.90
11961;DHT22;6040;49.358;11.140;2023-05-02T05:15:04;6.60;99.90
11961;DHT22;6040;49.358;11.140;2023-05-02T05:17:31;6.60;99.90
11961;DHT22;6040;49.358;11.140;2023-05-02T05:19:58;6.40;99.90
11961;DHT22;6040;49.358;11.140;2023-05-02T05:22:25;6.90;99.90
11961;DHT22;6040;49.358;11.140;2023-05-02T05:24:52;6.90;99.90
11961;DHT22;6040;49.358;11.140;2023-05-02T05:27:20;6.90;99.90
11961;DHT22;6040;49.358;11.140;2023-05-02T05:29:47;7.00;99.90
11961;DHT22;6040;49.358;11.140;2023-05-02T05:32:14;7.00;99.90
11961;DHT22;6040;49.358;11.140;2023-05-02T05:34:41;7.30;99.90
11961;DHT22;6040;49.358;11.140;2023-05-02T05:37:08;7.70;99.90
11961;DHT22;6040;49.358;11.140;2023-05-02T05:39:34;7.30;99.90
11961;DHT22;6040;49.358;11.140;2023-05-02T05:42:01;7.50;99.90
11961;DHT22;6040;49.358;11.140;2023-05-02T05:44:29;7.40;99.90
11961;DHT22;6040;49.358;11.140;2023-05-02T05:46:56;7.60;99.90
11961;DHT22;6040;49.358;11.140;2023-05-02T05:49:23;7.60;99.90
11961;DHT22;6040;49.358;11.140;2023-05-02T05:51:50;7.90;99.90
11961;DHT22;6040;49.358;11.140;2023-05-02T05:54:17;7.90;99.90
11961;DHT22;6040;49.358;11.140;2023-05-02T05:56:44;8.00;99.90
11961;DHT22;6040;49.358;11.140;2023-05-02T05:59:11;8.10;99.90
11961;DHT22;6040;49.358;11.140;2023-05-02T06:01:39;8.10;99.90
11961;DHT22;6040;49.358;11.140;2023-05-02T06:04:06;8.40;99.90
11961;DHT22;6040;49.358;11.140;2023-05-02T06:06:33;8.50;99.90
11961;DHT22;6040;49.358;11.140;2023-05-02T06:09:00;8.60;99.90
11961;DHT22;6040;49.358;11.140;2023-05-02T06:11:27;8.60;99.90
11961;DHT22;6040;49.358;11.140;2023-05-02T06:13:54;8.90;99.90
11961;DHT22;6040;49.358;11.140;2023-05-02T06:16:21;8.90;99.90
11961;DHT22;6040;49.358;11.140;2023-05-02T06:18:50;9.00;99.90
11961;DHT22;6040;49.358;11.140;2023-05-02T06:21:17;9.20;99.90
11961;DHT22;6040;49.358;11.140;2023-05-02T06:23:45;9.30;99.90
11961;DHT22;6040;49.358;11.140;2023-05-02T06:26:11;9.50;99.90
11961;DHT22;6040;49.358;11.140;2023-05-02T06:28:38;9.60;99.90
11961;DHT22;6040;49.358;11.140;2023-05-02T06:31:05;9.70;99.90
11961;DHT22;6040;49.358;11.140;2023-05-02T06:33:32;9.70;99.90
11961;DHT22;6040;49.358;11.140;2023-05-02T06:36:01;9.80;99.90
11961;DHT22;6040;49.358;11.140;2023-05-02T06:38:28;10.00;99.90
11961;DHT22;6040;49.358;11.140;2023-05-02T06:40:55;9.90;99.90
11961;DHT22;6040;49.358;11.140;2023-05-02T06:43:22;10.40;99.90
11961;DHT22;6040;49.358;11.140;2023-05-02T06:45:51;10.10;99.90
11961;DHT22;6040;49.358;11.140;2023-05-02T06:48:18;10.10;99.90
11961;DHT22;6040;49.358;11.140;2023-05-02T06:50:45;10.00;99.90
11961;DHT22;6040;49.358;11.140;2023-05-02T06:53:14;10.10;99.90
11961;DHT22;6040;49.358;11.140;2023-05-02T06:55:40;10.10;99.90
11961;DHT22;6040;49.358;11.140;2023-05-02T06:58:07;10.60;99.90
11961;DHT22;6040;49.358;11.140;2023-05-02T07:00:34;10.30;99.90
11961;DHT22;6040;49.358;11.140;2023-05-02T07:03:01;10.30;99.90
11961;DHT22;6040;49.358;11.140;2023-05-02T07:05:28;10.70;99.90
11961;DHT22;6040;49.358;11.140;2023-05-02T07:07:55;10.60;99.90
11961;DHT22;6040;49.358;11.140;2023-05-02T07:10:23;10.60;99.90
11961;DHT22;6040;49.358;11.140;2023-05-02T07:12:50;10.70;99.90
11961;DHT22;6040;49.358;11.140;2023-05-02T07:15:17;10.70;99.90
11961;DHT22;6040;49.358;11.140;2023-05-02T07:17:44;10.90;99.90
11961;DHT22;6040;49.358;11.140;2023-05-02T07:20:12;11.00;99.90
11961;DHT22;6040;49.358;11.140;2023-05-02T07:22:40;10.90;99.90
11961;DHT22;6040;49.358;11.140;2023-05-02T07:25:07;11.00;99.90
11961;DHT22;6040;49.358;11.140;2023-05-02T07:27:35;11.00;99.90
11961;DHT22;6040;49.358;11.140;2023-05-02T07:30:03;11.10;99.90
11961;DHT22;6040;49.358;11.140;2023-05-02T07:32:30;11.10;99.90
11961;DHT22;6040;49.358;11.140;2023-05-02T07:34:57;11.20;99.90
11961;DHT22;6040;49.358;11.140;2023-05-02T07:37:24;11.30;99.90
11961;DHT22;6040;49.358;11.140;2023-05-02T07:39:51;11.50;99.90
11961;DHT22;6040;49.358;11.140;2023-05-02T07:42:18;11.30;99.90
11961;DHT22;6040;49.358;11.140;2023-05-02T07:44:46;11.30;99.90
11961;DHT22;6040;49.358;11.140;2023-05-02T07:47:13;11.40;99.90
11961;DHT22;6040;49.358;11.140;2023-05-02T07:49:39;12.00;99.90
11961;DHT22;6040;49.358;11.140;2023-05-02T07:52:06;11.30;99.90
11961;DHT22;6040;49.358;11.140;2023-05-02T08:46:16;12.70;99.90
11961;DHT22;6040;49.358;11.140;2023-05-02T08:48:44;13.00;99.90
11961;DHT22;6040;49.358;11.140;2023-05-02T08:51:13;12.60;99.90
11961;DHT22;6040;49.358;11.140;2023-05-02T08:56:10;12.60;99.90
11961;DHT22;6040;49.358;11.140;2023-05-02T08:58:38;12.70;99.90
11961;DHT22;6040;49.358;11.140;2023-05-02T09:01:09;12.80;99.90
11961;DHT22;6040;49.358;11.140;2023-05-02T09:03:38;12.80;99.90
11961;DHT22;6040;49.358;11.140;2023-05-02T09:06:07;12.80;99.90
11961;DHT22;6040;49.358;11.140;2023-05-02T09:08:35;12.80;99.90
11961;DHT22;6040;49.358;11.140;2023-05-02T09:11:04;12.80;99.90
11961;DHT22;6040;49.358;11.140;2023-05-02T09:13:34;13.00;99.90
11961;DHT22;6040;49.358;11.140;2023-05-02T09:16:03;13.10;99.90
11961;DHT22;6040;49.358;11.140;2023-05-02T09:18:31;13.20;99.90
11961;DHT22;6040;49.358;11.140;2023-05-02T09:20:59;13.40;99.90
11961;DHT22;6040;49.358;11.140;2023-05-02T09:23:34;13.60;99.90
11961;DHT22;6040;49.358;11.140;2023-05-02T09:26:13;13.70;99.90
11961;DHT22;6040;49.358;11.140;2023-05-02T09:28:41;14.00;99.90
11961;DHT22;6040;49.358;11.140;2023-05-02T09:31:09;15.10;99.90
11961;DHT22;6040;49.358;11.140;2023-05-02T09:33:37;14.70;99.90
11961;DHT22;6040;49.358;11.140;2023-05-02T09:36:04;15.00;99.90
11961;DHT22;6040;49.358;11.140;2023-05-02T09:38:32;15.20;99.90
11961;DHT22;6040;49.358;11.140;2023-05-02T09:40:59;15.70;99.90
11961;DHT22;6040;49.358;11.140;2023-05-02T09:43:30;16.40;99.90
11961;DHT22;6040;49.358;11.140;2023-05-02T09:48:25;17.20;99.90
11961;DHT22;6040;49.358;11.140;2023-05-02T09:50:52;17.60;99.90
11961;DHT22;6040;49.358;11.140;2023-05-02T09:53:19;17.50;99.90
11961;DHT22;6040;49.358;11.140;2023-05-02T09:55:46;17.80;99.90
11961;DHT22;6040;49.358;11.140;2023-05-02T09:58:20;17.90;99.90
11961;DHT22;6040;49.358;11.140;2023-05-02T10:00:49;17.90;99.90
11961;DHT22;6040;49.358;11.140;2023-05-02T10:03:17;17.90;99.90
11961;DHT22;6040;49.358;11.140;2023-05-02T10:05:46;18.20;99.90
11961;DHT22;6040;49.358;11.140;2023-05-02T10:08:13;18.20;99.90
11961;DHT22;6040;49.358;11.140;2023-05-02T10:10:45;18.50;99.90
11961;DHT22;6040;49.358;11.140;2023-05-02T10:13:13;18.80;99.90
11961;DHT22;6040;49.358;11.140;2023-05-02T10:15:43;19.10;99.90
11961;DHT22;6040;49.358;11.140;2023-05-02T10:18:14;19.30;99.90
11961;DHT22;6040;49.358;11.140;2023-05-02T10:20:47;19.60;99.90
11961;DHT22;6040;49.358;11.140;2023-05-02T10:23:20;20.00;99.90
11961;DHT22;6040;49.358;11.140;2023-05-02T10:25:48;20.20;99.90
11961;DHT22;6040;49.358;11.140;2023-05-02T10:28:15;19.70;99.90
11961;DHT22;6040;49.358;11.140;2023-05-02T10:30:42;19.60;99.90
11961;DHT22;6040;49.358;11.140;2023-05-02T10:33:13;19.60;99.90
11961;DHT22;6040;49.358;11.140;2023-05-02T10:35:43;19.50;99.90
11961;DHT22;6040;49.358;11.140;2023-05-02T10:38:12;19.60;99.90
11961;DHT22;6040;49.358;11.140;2023-05-02T10:40:41;19.70;99.90
11961;DHT22;6040;49.358;11.140;2023-05-02T10:43:13;20.10;99.90
11961;DHT22;6040;49.358;11.140;2023-05-02T10:45:41;20.50;99.90
11961;DHT22;6040;49.358;11.140;2023-05-02T10:53:27;21.00;99.90
11961;DHT22;6040;49.358;11.140;2023-05-02T10:56:12;20.40;99.90
11961;DHT22;6040;49.358;11.140;2023-05-02T10:58:39;19.70;99.90
11961;DHT22;6040;49.358;11.140;2023-05-02T11:01:31;19.70;99.90
11961;DHT22;6040;49.358;11.140;2023-05-02T11:04:03;18.70;99.90
11961;DHT22;6040;49.358;11.140;2023-05-02T11:06:32;18.90;99.90
11961;DHT22;6040;49.358;11.140;2023-05-02T11:09:30;19.40;99.90
11961;DHT22;6040;49.358;11.140;2023-05-02T11:11:58;19.40;99.90
11961;DHT22;6040;49.358;11.140;2023-05-02T11:14:45;19.30;99.90
11961;DHT22;6040;49.358;11.140;2023-05-02T11:17:14;19.70;99.90
11961;DHT22;6040;49.358;11.140;2023-05-02T11:22:58;19.80;99.90
11961;DHT22;6040;49.358;11.140;2023-05-02T12:05:33;20.90;99.90
11961;DHT22;6040;49.358;11.140;2023-05-02T12:08:00;20.20;99.90
11961;DHT22;6040;49.358;11.140;2023-05-02T12:10:35;20.00;99.90
11961;DHT22;6040;49.358;11.140;2023-05-02T12:13:05;20.20;99.90
11961;DHT22;6040;49.358;11.140;2023-05-02T12:15:32;20.10;99.90
11961;DHT22;6040;49.358;11.140;2023-05-02T12:17:59;20.00;99.90
11961;DHT22;6040;49.358;11.140;2023-05-02T12:20:26;19.80;99.90
11961;DHT22;6040;49.358;11.140;2023-05-02T12:22:53;19.90;99.90
11961;DHT22;6040;49.358;11.140;2023-05-02T12:25:20;19.60;99.90
11961;DHT22;6040;49.358;11.140;2023-05-02T12:27:59;20.00;99.90
11961;DHT22;6040;49.358;11.140;2023-05-02T12:30:30;19.30;99.90
11961;DHT22;6040;49.358;11.140;2023-05-02T12:32:59;19.50;99.90
11961;DHT22;6040;49.358;11.140;2023-05-02T12:35:26;19.10;99.90
11961;DHT22;6040;49.358;11.140;2023-05-02T12:37:54;19.20;99.90
11961;DHT22;6040;49.358;11.140;2023-05-02T12:40:21;18.90;99.90
11961;DHT22;6040;49.358;11.140;2023-05-02T12:42:58;18.70;99.90
11961;DHT22;6040;49.358;11.140;2023-05-02T12:45:25;18.70;99.90
11961;DHT22;6040;49.358;11.140;2023-05-02T12:47:55;18.60;99.90
11961;DHT22;6040;49.358;11.140;2023-05-02T12:50:34;18.50;99.90
11961;DHT22;6040;49.358;11.140;2023-05-02T12:53:01;18.40;99.90
11961;DHT22;6040;49.358;11.140;2023-05-02T12:55:28;18.50;99.90
11961;DHT22;6040;49.358;11.140;2023-05-02T12:58:00;18.50;99.90
11961;DHT22;6040;49.358;11.140;2023-05-02T13:00:28;19.30;99.90
11961;DHT22;6040;49.358;11.140;2023-05-02T13:02:56;19.30;99.90
11961;DHT22;6040;49.358;11.140;2023-05-02T13:05:23;19.50;99.90
11961;DHT22;6040;49.358;11.140;2023-05-02T13:07:50;19.50;99.90
11961;DHT22;6040;49.358;11.140;2023-05-02T13:10:17;19.30;99.90
11961;DHT22;6040;49.358;11.140;2023-05-02T13:12:45;19.10;99.90
11961;DHT22;6040;49.358;11.140;2023-05-02T13:17:40;18.60;99.90
11961;DHT22;6040;49.358;11.140;2023-05-02T13:20:09;18.60;99.90
11961;DHT22;6040;49.358;11.140;2023-05-02T15:45:10;17.90;99.90
11961;DHT22;6040;49.358;11.140;2023-05-02T15:47:38;17.80;99.90
11961;DHT22;6040;49.358;11.140;2023-05-02T15:50:05;17.40;99.90
11961;DHT22;6040;49.358;11.140;2023-05-02T15:52:32;17.30;99.90
11961;DHT22;6040;49.358;11.140;2023-05-02T15:55:01;17.30;99.90
11961;DHT22;6040;49.358;11.140;2023-05-02T15:57:28;17.70;99.90
11961;DHT22;6040;49.358;11.140;2023-05-02T15:59:55;17.40;99.90
11961;DHT22;6040;49.358;11.140;2023-05-02T16:02:21;17.60;99.90
11961;DHT22;6040;49.358;11.140;2023-05-02T16:04:48;17.60;99.90
11961;DHT22;6040;49.358;11.140;2023-05-02T16:07:15;17.40;99.90
11961;DHT22;6040;49.358;11.140;2023-05-02T16:09:42;17.40;99.90
11961;DHT22;6040;49.358;11.140;2023-05-02T16:12:10;16.90;99.90
11961;DHT22;6040;49.358;11.140;2023-05-02T16:14:38;17.10;99.90
11961;DHT22;6040;49.358;11.140;2023-05-02T16:17:04;16.80;99.90
11961;DHT22;6040;49.358;11.140;2023-05-02T16:19:32;16.80;99.90
11961;DHT22;6040;49.358;11.140;2023-05-02T16:21:59;16.80;99.90
11961;DHT22;6040;49.358;11.140;2023-05-02T16:24:26;16.50;99.90
11961;DHT22;6040;49.358;11.140;2023-05-02T16:26:53;16.70;99.90
11961;DHT22;6040;49.358;11.140;2023-05-02T16:29:21;16.50;99.90
11961;DHT22;6040;49.358;11.140;2023-05-02T16:31:48;16.60;99.90
11961;DHT22;6040;49.358;11.140;2023-05-02T16:34:15;16.40;99.90
11961;DHT22;6040;49.358;11.140;2023-05-02T16:36:42;16.40;99.90
11961;DHT22;6040;49.358;11.140;2023-05-02T16:39:08;16.30;99.90
11961;DHT22;6040;49.358;11.140;2023-05-02T16:41:36;16.40;99.90
11961;DHT22;6040;49.358;11.140;2023-05-02T16:44:03;16.30;99.90
11961;DHT22;6040;49.358;11.140;2023-05-02T16:46:31;16.20;99.90
11961;DHT22;6040;49.358;11.140;2023-05-02T16:51:25;16.10;99.90
11961;DHT22;6040;49.358;11.140;2023-05-02T16:53:52;16.30;99.90
11961;DHT22;6040;49.358;11.140;2023-05-02T16:56:19;16.00;99.90
11961;DHT22;6040;49.358;11.140;2023-05-02T16:58:45;16.10;99.90
11961;DHT22;6040;49.358;11.140;2023-05-02T17:01:12;15.90;99.90
11961;DHT22;6040;49.358;11.140;2023-05-02T17:03:41;16.00;99.90
11961;DHT22;6040;49.358;11.140;2023-05-02T17:06:07;15.90;99.90
11961;DHT22;6040;49.358;11.140;2023-05-02T17:11:02;15.70;99.90
11961;DHT22;6040;49.358;11.140;2023-05-02T17:13:29;15.80;99.90
11961;DHT22;6040;49.358;11.140;2023-05-02T17:15:57;15.80;99.90
11961;DHT22;6040;49.358;11.140;2023-05-02T17:18:24;15.50;99.90
11961;DHT22;6040;49.358;11.140;2023-05-02T17:20:53;15.70;99.90
11961;DHT22;6040;49.358;11.140;2023-05-02T17:23:20;15.50;99.90
11961;DHT22;6040;49.358;11.140;2023-05-02T17:25:47;15.50;99.90
11961;DHT22;6040;49.358;11.140;2023-05-02T17:30:42;15.20;99.90
11961;DHT22;6040;49.358;11.140;2023-05-02T17:33:09;15.50;99.90
11961;DHT22;6040;49.358;11.140;2023-05-02T17:35:36;15.10;99.90
11961;DHT22;6040;49.358;11.140;2023-05-02T17:40:31;15.00;99.90
11961;DHT22;6040;49.358;11.140;2023-05-02T17:42:58;15.10;99.90
11961;DHT22;6040;49.358;11.140;2023-05-02T17:47:54;14.70;99.90
11961;DHT22;6040;49.358;11.140;2023-05-02T17:50:21;14.90;99.90
11961;DHT22;6040;49.358;11.140;2023-05-02T17:52:47;14.80;99.90
11961;DHT22;6040;49.358;11.140;2023-05-02T17:55:17;14.80;99.90
11961;DHT22;6040;49.358;11.140;2023-05-02T17:57:43;14.40;99.90
11961;DHT22;6040;49.358;11.140;2023-05-02T18:00:11;14.40;99.90
11961;DHT22;6040;49.358;11.140;2023-05-02T18:02:39;14.10;99.90
11961;DHT22;6040;49.358;11.140;2023-05-02T18:07:34;14.10;99.90
11961;DHT22;6040;49.358;11.140;2023-05-02T19:21:27;12.80;99.90
11961;DHT22;6040;49.358;11.140;2023-05-02T19:23:54;12.70;99.90
11961;DHT22;6040;49.358;11.140;2023-05-02T19:26:22;12.60;99.90
11961;DHT22;6040;49.358;11.140;2023-05-02T19:28:48;12.50;99.90
11961;DHT22;6040;49.358;11.140;2023-05-02T19:31:17;12.50;99.90
11961;DHT22;6040;49.358;11.140;2023-05-02T19:33:45;12.40;99.90
11961;DHT22;6040;49.358;11.140;2023-05-02T19:36:16;12.40;99.90
11961;DHT22;6040;49.358;11.140;2023-05-02T19:38:46;12.20;99.90
11961;DHT22;6040;49.358;11.140;2023-05-02T19:41:13;12.30;99.90
11961;DHT22;6040;49.358;11.140;2023-05-02T19:43:40;12.20;99.90
11961;DHT22;6040;49.358;11.140;2023-05-02T19:46:07;12.00;99.90
11961;DHT22;6040;49.358;11.140;2023-05-02T19:51:01;12.00;99.90
11961;DHT22;6040;49.358;11.140;2023-05-02T19:53:29;12.10;99.90
11961;DHT22;6040;49.358;11.140;2023-05-02T19:55:58;12.00;99.90
11961;DHT22;6040;49.358;11.140;2023-05-02T19:58:25;12.00;99.90
11961;DHT22;6040;49.358;11.140;2023-05-02T20:00:52;11.70;99.90
11961;DHT22;6040;49.358;11.140;2023-05-02T20:03:19;11.70;99.90
